Auburn, CA

9:21 PM PST on December 12, 2019 (GMT -0800)
Auburn Municipal

Weather History for KAUN - October, 2019

Change the Weather History Date:

Tuesday, October 1, 2019

  Actual Average Record
Temperature  
Mean Temperature 54 °F -  
Max Temperature 66 °F 82 °F 96 °F (1952)
Min Temperature 42 °F 56 °F 42 °F (1950)
Degree Days  
Heating Degree Days 11    
Growing Degree Days 4 (Base 50)    
Moisture  
Dew Point 37 °F    
Average Humidity 58    
Maximum Humidity 81    
Minimum Humidity 30    
Precipitation  
Precipitation 0.00 in - - ()
Sea Level Pressure  
Sea Level Pressure 29.96 in    
Wind  
Wind Speed 1 mph ()    
Max Wind Speed 9 mph    
Max Gust Speed 15 mph    
Visibility 10.0 miles    
Events      
Averages and records for this station are not official NWS values.
T = Trace of Precipitation, MM = Missing Value Source: Averaged Metar Reports

Daily Weather History Graph

Daily Weather History Graph

Search for Another Location

Airport or City:

Astronomy

Oct. 01, 2019 Rise Set
Actual Time 7:00 AM PDT 6:47 PM PDT
Civil Twilight 6:33 AM PDT 7:13 PM PDT
Nautical Twilight 6:02 AM PDT 7:44 PM PDT
Astronomical Twilight 5:31 AM PDT 8:15 PM PDT
Moon 10:20 AM PDT (10/1) 9:05 PM PDT (10/1)
Length of Visible Light 12h 40m
Length of Day
11h 47m
Waxing Crescent, 13% of the Moon is Illuminated
Oct 1
Waxing Crescent
Oct 5
First Quarter
Oct 13
Full
Oct 21
Last Quarter
Oct 27
New

Hourly Weather History & Observations

Time (PDT) Temp. Windchill Dew Point Humidity Pressure Visibility Wind Dir Wind Speed Gust Speed Precip Events Conditions
12:15 AM 46.4 °F - 39.2 °F 76% 29.95 in 10.0 mi Calm Calm - N/A   Clear
12:35 AM 46.4 °F - 39.2 °F 76% 29.95 in 10.0 mi Calm Calm - N/A   Clear
12:55 AM 46.4 °F - 39.2 °F 76% 29.95 in 10.0 mi Calm Calm - N/A   Clear
1:15 AM 44.6 °F - 39.2 °F 81% 29.95 in 10.0 mi Calm Calm - N/A   Clear
1:35 AM 42.8 °F - 37.4 °F 81% 29.95 in 10.0 mi Calm Calm - N/A   Clear
1:55 AM 42.8 °F - 37.4 °F 81% 29.95 in 10.0 mi Calm Calm - N/A   Clear
2:15 AM 44.6 °F - 37.4 °F 76% 29.95 in 10.0 mi Calm Calm - N/A   Clear
2:35 AM 44.6 °F - 37.4 °F 76% 29.95 in 10.0 mi Calm Calm - N/A   Clear
2:55 AM 44.6 °F - 37.4 °F 76% 29.94 in 10.0 mi Calm Calm - N/A   Clear
3:15 AM 44.6 °F - 37.4 °F 76% 29.93 in 10.0 mi Calm Calm - N/A   Clear
3:35 AM 44.6 °F - 37.4 °F 76% 29.93 in 10.0 mi Calm Calm - N/A   Clear
3:55 AM 42.8 °F - 37.4 °F 81% 29.93 in 10.0 mi Calm Calm - N/A   Clear
4:15 AM 42.8 °F - 37.4 °F 81% 29.93 in 10.0 mi Calm Calm - N/A   Clear
4:35 AM 42.8 °F - 37.4 °F 81% 29.93 in 10.0 mi Calm Calm - N/A   Clear
4:55 AM 42.8 °F - 35.6 °F 76% 29.93 in 10.0 mi Calm Calm - N/A   Clear
5:15 AM 42.8 °F - 35.6 °F 76% 29.93 in 10.0 mi Calm Calm - N/A   Clear
5:35 AM 42.8 °F - 35.6 °F 76% 29.93 in 10.0 mi Calm Calm - N/A   Clear
5:55 AM 42.8 °F - 35.6 °F 76% 29.93 in 10.0 mi Calm Calm - N/A   Clear
6:15 AM 42.8 °F - 35.6 °F 76% 29.93 in 10.0 mi Calm Calm - N/A   Clear
6:35 AM 42.8 °F 39.3 °F 35.6 °F 76% 29.93 in 10.0 mi East 5.8 mph - N/A   Clear
6:55 AM 42.8 °F - 35.6 °F 76% 29.94 in 10.0 mi Calm Calm - N/A   Clear
7:15 AM 42.8 °F - 35.6 °F 76% 29.94 in 10.0 mi Calm Calm - N/A   Clear
7:35 AM 42.8 °F - 35.6 °F 76% 29.94 in 10.0 mi Calm Calm - N/A   Clear
7:55 AM 44.6 °F - 35.6 °F 71% 29.95 in 10.0 mi Calm Calm - N/A   Clear
8:15 AM 46.4 °F - 37.4 °F 71% 29.95 in 10.0 mi Calm Calm - N/A   Clear
8:35 AM 48.2 °F - 37.4 °F 66% 29.95 in 10.0 mi Calm Calm - N/A   Clear
8:55 AM 50.0 °F - 37.4 °F 62% 29.96 in 10.0 mi Calm Calm - N/A   Clear
9:15 AM 51.8 °F - 37.4 °F 58% 29.96 in 10.0 mi Calm Calm - N/A   Clear
9:35 AM 53.6 °F - 37.4 °F 54% 29.96 in 10.0 mi Calm Calm - N/A   Clear
9:55 AM 57.2 °F - 39.2 °F 51% 29.96 in 10.0 mi Calm Calm - N/A   Clear
10:15 AM 57.2 °F - 37.4 °F 48% 29.96 in 10.0 mi Calm Calm - N/A   Clear
10:35 AM 59.0 °F - 37.4 °F 45% 29.97 in 10.0 mi Calm Calm - N/A   Clear
10:55 AM 59.0 °F - 37.4 °F 45% 29.97 in 10.0 mi Calm Calm - N/A   Clear
11:15 AM 60.8 °F - 39.2 °F 45% 29.97 in 10.0 mi Calm Calm - N/A   Clear
11:35 AM 60.8 °F - 41.0 °F 48% 29.97 in 10.0 mi Calm Calm - N/A   Clear
11:55 AM 60.8 °F - 39.2 °F 45% 29.97 in 10.0 mi Calm Calm - N/A   Clear
12:15 PM 62.6 °F - 41.0 °F 45% 29.97 in 10.0 mi Calm Calm - N/A   Clear
12:35 PM 62.6 °F - 41.0 °F 45% 29.97 in 10.0 mi West 6.9 mph - N/A   Clear
12:55 PM 62.6 °F - 41.0 °F 45% 29.97 in 10.0 mi West 6.9 mph - N/A   Clear
1:15 PM 62.6 °F - 39.2 °F 42% 29.97 in 10.0 mi Variable 4.6 mph 13.8 mph N/A   Clear
1:35 PM 64.4 °F - 37.4 °F 37% 29.97 in 10.0 mi Calm Calm 12.7 mph N/A   Clear
1:55 PM 64.4 °F - 39.2 °F 40% 29.97 in 10.0 mi West 8.1 mph - N/A   Clear
2:15 PM 64.4 °F - 37.4 °F 37% 29.96 in 10.0 mi West 9.2 mph - N/A   Clear
2:35 PM 66.2 °F - 39.2 °F 37% 29.96 in 10.0 mi Calm Calm - N/A   Clear
2:55 PM 66.2 °F - 37.4 °F 35% 29.96 in 10.0 mi Variable 4.6 mph 15.0 mph N/A   Clear
3:15 PM 66.2 °F - 37.4 °F 35% 29.96 in 10.0 mi West 5.8 mph 11.5 mph N/A   Clear
3:35 PM 66.2 °F - 37.4 °F 35% 29.96 in 10.0 mi Calm Calm - N/A   Clear
3:55 PM 66.2 °F - 35.6 °F 32% 29.96 in 10.0 mi Variable 5.8 mph - N/A   Clear
4:15 PM 66.2 °F - 35.6 °F 32% 29.96 in 10.0 mi West 4.6 mph - N/A   Clear
4:35 PM 66.2 °F - 33.8 °F 30% 29.96 in 10.0 mi Calm Calm - N/A   Clear
4:55 PM 66.2 °F - 33.8 °F 30% 29.95 in 10.0 mi Calm Calm - N/A   Clear
5:15 PM 66.2 °F - 33.8 °F 30% 29.96 in 10.0 mi Calm Calm - N/A   Clear
5:35 PM 66.2 °F - 33.8 °F 30% 29.96 in 10.0 mi Calm Calm - N/A   Clear
5:55 PM 64.4 °F - 33.8 °F 32% 29.96 in 10.0 mi Calm Calm - N/A   Clear
6:15 PM 62.6 °F - 33.8 °F 34% 29.97 in 10.0 mi Calm Calm - N/A   Clear
6:35 PM 62.6 °F - 33.8 °F 34% 29.97 in 10.0 mi Calm Calm - N/A   Clear
6:55 PM 57.2 °F - 37.4 °F 48% 29.98 in 10.0 mi Calm Calm - N/A   Clear
7:15 PM 51.8 °F - 39.2 °F 62% 29.98 in 10.0 mi Calm Calm - N/A   Clear
7:35 PM 51.8 °F - 39.2 °F 62% 29.98 in 10.0 mi Calm Calm - N/A   Clear
7:55 PM 50.0 °F - 39.2 °F 66% 29.98 in 10.0 mi Calm Calm - N/A   Clear
8:15 PM 51.8 °F - 37.4 °F 58% 29.99 in 10.0 mi Calm Calm - N/A   Clear
8:35 PM 51.8 °F - 39.2 °F 62% 29.99 in 10.0 mi Calm Calm - N/A   Clear
8:55 PM 50.0 °F - 41.0 °F 71% 29.99 in 10.0 mi Calm Calm - N/A   Clear
9:15 PM 50.0 °F - 37.4 °F 62% 29.99 in 10.0 mi Calm Calm - N/A   Clear
9:35 PM 51.8 °F - 37.4 °F 58% 29.99 in 10.0 mi Calm Calm - N/A   Clear
9:55 PM 55.4 °F - 37.4 °F 51% 29.99 in 10.0 mi Calm Calm - N/A   Clear
10:15 PM 51.8 °F - 37.4 °F 58% 29.99 in 10.0 mi Calm Calm - N/A   Clear
10:35 PM 51.8 °F - 37.4 °F 58% 29.99 in 10.0 mi Calm Calm - N/A   Clear
10:55 PM 50.0 °F - 39.2 °F 66% 29.99 in 10.0 mi Calm Calm - N/A   Clear
11:15 PM 50.0 °F - 39.2 °F 66% 29.99 in 10.0 mi Calm Calm - N/A   Clear
11:35 PM 50.0 °F - 41.0 °F 71% 29.99 in 10.0 mi Calm Calm - N/A   Clear
11:55 PM 50.0 °F - 41.0 °F 71% 29.99 in 10.0 mi Calm Calm - N/A   Clear